createdAt,value
2023-01-17T00:01:28.836Z,96472.34
2023-01-17T00:04:15.183Z,96472.28
2023-01-17T00:07:00.304Z,96472.13
2023-01-17T00:09:45.678Z,96474.00
2023-01-17T00:12:13.164Z,96469.50
2023-01-17T00:14:40.646Z,96463.97
2023-01-17T00:17:08.083Z,96470.91
2023-01-17T00:19:54.662Z,96471.38
2023-01-17T00:22:41.447Z,96481.44
2023-01-17T00:25:29.413Z,96480.38
2023-01-17T00:27:55.903Z,96482.09
2023-01-17T00:30:22.941Z,96480.31
2023-01-17T00:32:49.400Z,96487.50
2023-01-17T00:35:17.478Z,96490.91
2023-01-17T00:37:43.923Z,96489.34
2023-01-17T00:40:11.378Z,96496.00
2023-01-17T00:42:37.870Z,96502.78
2023-01-17T00:45:23.701Z,96501.75
2023-01-17T00:48:09.184Z,96511.34
2023-01-17T00:50:56.395Z,96513.41
2023-01-17T00:53:41.594Z,96509.84
2023-01-17T00:56:27.050Z,96511.72
2023-01-17T00:59:12.831Z,96515.78
2023-01-17T01:01:58.283Z,96513.59
2023-01-17T01:04:43.763Z,96516.09
2023-01-17T01:07:30.213Z,96515.03
2023-01-17T01:10:15.632Z,96513.63
2023-01-17T01:13:00.949Z,96514.09
2023-01-17T01:15:46.083Z,96514.31
2023-01-17T01:18:31.529Z,96505.78
2023-01-17T01:21:21.024Z,96510.53
2023-01-17T01:24:07.699Z,96513.28
2023-01-17T01:26:53.139Z,96514.72
2023-01-17T01:29:38.289Z,96505.91
2023-01-17T01:32:23.748Z,96511.88
2023-01-17T01:34:51.220Z,96508.53
2023-01-17T01:37:18.667Z,96510.53
2023-01-17T01:39:47.447Z,96505.28
2023-01-17T01:42:16.166Z,96509.00
2023-01-17T01:44:48.546Z,96509.94
2023-01-17T01:47:22.175Z,96509.47
2023-01-17T01:49:50.368Z,96513.91
2023-01-17T01:52:19.261Z,96513.34
2023-01-17T01:54:51.540Z,96520.63
2023-01-17T01:57:22.588Z,96527.22
2023-01-17T01:59:53.707Z,96524.41
2023-01-17T02:02:21.325Z,96525.88
2023-01-17T02:04:49.211Z,96526.38
2023-01-17T02:07:20.818Z,96522.03
2023-01-17T02:09:50.063Z,96534.19
2023-01-17T02:12:18.549Z,96537.88
2023-01-17T02:14:46.038Z,96539.50
2023-01-17T02:17:21.107Z,96548.06
2023-01-17T02:20:16.121Z,96542.03
2023-01-17T02:23:15.313Z,96543.72
2023-01-17T02:26:05.910Z,96542.44
2023-01-17T02:28:43.805Z,96547.50
2023-01-17T02:31:15.885Z,96541.00
2023-01-17T02:33:48.100Z,96543.66
2023-01-17T02:36:19.353Z,96554.78
2023-01-17T02:38:52.444Z,96556.03
2023-01-17T02:41:22.959Z,96565.09
2023-01-17T02:43:52.167Z,96563.94
2023-01-17T02:46:21.013Z,96569.91
2023-01-17T02:48:48.939Z,96565.53
2023-01-17T02:51:29.873Z,96569.41
2023-01-17T02:54:07.236Z,96574.19
2023-01-17T02:56:44.785Z,96584.09
2023-01-17T02:59:18.691Z,96585.78
2023-01-17T03:02:01.594Z,96597.41
2023-01-17T03:04:33.051Z,96598.16
2023-01-17T03:07:02.859Z,96597.25
2023-01-17T03:09:31.481Z,96596.81
2023-01-17T03:11:59.854Z,96599.66
2023-01-17T03:14:27.337Z,96596.31
2023-01-17T03:16:56.741Z,96599.03
2023-01-17T03:19:24.256Z,96594.84
2023-01-17T03:21:51.716Z,96601.34
2023-01-17T03:24:19.277Z,96606.63
2023-01-17T03:26:47.919Z,96611.25
2023-01-17T03:29:16.459Z,96616.19
2023-01-17T03:31:43.992Z,96614.13
2023-01-17T03:34:12.837Z,96619.22
2023-01-17T03:36:40.336Z,96623.00
2023-01-17T03:39:07.808Z,96627.75
2023-01-17T03:41:35.336Z,96636.47
2023-01-17T03:44:02.834Z,96637.34
2023-01-17T03:46:30.329Z,96648.06
2023-01-17T03:48:57.801Z,96654.22
2023-01-17T03:51:27.030Z,96651.00
2023-01-17T03:53:54.533Z,96651.56
2023-01-17T03:56:22.344Z,96663.63
2023-01-17T03:58:49.828Z,96664.31
2023-01-17T04:01:17.341Z,96674.09
2023-01-17T04:03:44.870Z,96664.63
2023-01-17T04:06:12.421Z,96662.63
2023-01-17T04:08:41.638Z,96669.22
2023-01-17T04:11:09.132Z,96666.69
2023-01-17T04:13:36.687Z,96671.97
2023-01-17T04:16:04.367Z,96664.34
2023-01-17T04:18:31.820Z,96672.22
2023-01-17T04:20:59.272Z,96683.22
2023-01-17T04:23:26.829Z,96681.47
2023-01-17T04:25:55.613Z,96691.03
2023-01-17T04:28:23.057Z,96685.25
2023-01-17T04:30:50.531Z,96690.94
2023-01-17T04:33:18.991Z,96697.63
2023-01-17T04:35:46.461Z,96703.25
2023-01-17T04:38:13.929Z,96704.97
2023-01-17T04:40:41.453Z,96698.09
2023-01-17T04:43:10.273Z,96699.19
2023-01-17T04:45:38.730Z,96712.91
2023-01-17T04:48:07.153Z,96705.81
2023-01-17T04:50:35.827Z,96707.28
2023-01-17T04:53:03.276Z,96706.75
2023-01-17T04:55:30.799Z,96701.31
2023-01-17T04:57:58.263Z,96705.22
2023-01-17T05:00:27.082Z,96705.22
2023-01-17T05:02:54.558Z,96714.06
2023-01-17T05:05:22.048Z,96714.25
2023-01-17T05:07:54.818Z,96718.53
2023-01-17T05:10:22.353Z,96723.09
2023-01-17T05:12:55.249Z,96720.63
2023-01-17T05:15:23.071Z,96730.56
2023-01-17T05:17:53.468Z,96739.19
2023-01-17T05:20:20.967Z,96746.28
2023-01-17T05:22:55.386Z,96731.59
2023-01-17T05:25:23.330Z,96731.03
2023-01-17T05:27:50.806Z,96746.28
2023-01-17T05:30:18.852Z,96743.47
2023-01-17T05:32:46.451Z,96767.97
2023-01-17T05:35:15.446Z,96770.47
2023-01-17T05:37:48.813Z,96771.31
2023-01-17T05:40:16.765Z,96788.34
2023-01-17T05:42:46.560Z,96785.72
2023-01-17T05:45:16.849Z,96790.81
2023-01-17T05:47:44.508Z,96801.97
2023-01-17T05:50:12.516Z,96811.50
2023-01-17T05:52:41.859Z,96809.56
2023-01-17T05:55:10.179Z,96819.34
2023-01-17T05:57:37.614Z,96813.81
2023-01-17T06:00:06.039Z,96818.41
2023-01-17T06:02:33.509Z,96823.53
2023-01-17T06:05:03.367Z,96819.81
2023-01-17T06:07:31.021Z,96822.78
2023-01-17T06:09:59.804Z,96822.41
2023-01-17T06:12:27.322Z,96821.84
2023-01-17T06:14:54.922Z,96824.09
2023-01-17T06:17:22.524Z,96830.66
2023-01-17T06:19:50.018Z,96836.66
2023-01-17T06:22:17.486Z,96851.38
2023-01-17T06:24:44.924Z,96852.59
2023-01-17T06:27:13.704Z,96847.56
2023-01-17T06:29:41.146Z,96854.25
2023-01-17T06:32:08.588Z,96849.13
2023-01-17T06:34:36.059Z,96849.25
2023-01-17T06:37:03.600Z,96867.84
2023-01-17T06:39:31.105Z,96854.84
2023-01-17T06:41:58.778Z,96864.78
2023-01-17T06:44:27.782Z,96880.34
2023-01-17T06:46:55.308Z,96882.78
2023-01-17T06:49:22.790Z,96883.34
2023-01-17T06:51:50.523Z,96893.34
2023-01-17T06:54:18.846Z,96920.38
2023-01-17T06:56:46.359Z,96916.41
2023-01-17T06:59:13.867Z,96933.47
2023-01-17T07:01:42.707Z,96945.59
2023-01-17T07:04:10.225Z,96951.72
2023-01-17T07:06:38.169Z,96960.66
2023-01-17T07:09:06.006Z,96971.47
2023-01-17T07:11:33.537Z,96977.97
2023-01-17T07:14:01.057Z,96981.81
2023-01-17T07:16:28.619Z,96990.88
2023-01-17T07:18:58.114Z,96994.44
2023-01-17T07:21:25.595Z,96993.91
2023-01-17T07:23:53.082Z,97007.16
2023-01-17T07:26:20.542Z,97012.28
2023-01-17T07:28:47.983Z,97010.09
2023-01-17T07:31:15.436Z,97014.56
2023-01-17T07:33:42.903Z,97021.25
2023-01-17T07:36:12.112Z,97032.66
2023-01-17T07:38:40.352Z,97035.44
2023-01-17T07:41:09.334Z,97029.69
2023-01-17T07:43:38.385Z,97036.34
2023-01-17T07:46:07.098Z,97046.72
2023-01-17T07:48:34.806Z,97050.44
2023-01-17T07:51:02.310Z,97049.38
2023-01-17T07:53:32.953Z,97058.44
2023-01-17T07:56:02.014Z,97047.44
2023-01-17T07:58:29.774Z,97055.63
2023-01-17T08:01:02.364Z,97061.91
2023-01-17T08:03:32.235Z,97062.63
2023-01-17T08:05:59.983Z,97058.78
2023-01-17T08:08:27.424Z,97069.81
2023-01-17T08:10:56.207Z,97060.84
2023-01-17T08:13:23.754Z,97068.88
2023-01-17T08:15:52.191Z,97078.22
2023-01-17T08:18:19.660Z,97080.53
2023-01-17T08:20:47.149Z,97078.53
2023-01-17T08:23:14.689Z,97080.84
2023-01-17T08:25:42.169Z,97096.81
2023-01-17T08:28:10.996Z,97100.25
2023-01-17T08:30:38.535Z,97102.22
2023-01-17T08:33:06.124Z,97103.84
2023-01-17T08:35:36.017Z,97106.22
2023-01-17T08:38:04.834Z,97113.31
2023-01-17T08:40:33.488Z,97117.13
2023-01-17T08:43:01.915Z,97110.75
2023-01-17T08:45:30.710Z,97118.25
2023-01-17T08:47:58.960Z,97127.22
2023-01-17T08:50:26.981Z,97134.41
2023-01-17T08:53:01.054Z,97121.44
2023-01-17T08:55:29.136Z,97139.91
2023-01-17T08:57:57.414Z,97151.41
2023-01-17T09:00:25.034Z,97156.16
2023-01-17T09:02:54.171Z,97157.88
2023-01-17T09:05:21.665Z,97156.34
2023-01-17T09:07:49.101Z,97158.63
2023-01-17T09:10:17.186Z,97172.25
2023-01-17T09:12:44.657Z,97169.19
2023-01-17T09:15:14.605Z,97172.03
2023-01-17T09:17:42.071Z,97175.69
2023-01-17T09:20:12.500Z,97177.38
2023-01-17T09:22:39.975Z,97176.53
2023-01-17T09:25:08.519Z,97191.72
2023-01-17T09:27:35.977Z,97186.63
2023-01-17T09:30:03.729Z,97192.41
2023-01-17T09:32:31.183Z,97187.97
2023-01-17T09:35:00.692Z,97196.31
2023-01-17T09:37:29.994Z,97192.69
2023-01-17T09:39:57.489Z,97192.03
2023-01-17T09:42:31.677Z,97201.41
2023-01-17T09:44:59.826Z,97201.72
2023-01-17T09:47:34.050Z,97201.78
2023-01-17T09:50:08.380Z,97204.88
2023-01-17T09:52:37.284Z,97201.91
2023-01-17T09:55:07.974Z,97204.72
2023-01-17T09:57:42.338Z,97202.78
2023-01-17T10:00:17.230Z,97205.97
2023-01-17T10:02:55.723Z,97210.03
2023-01-17T10:05:34.909Z,97216.34
2023-01-17T10:08:14.245Z,97224.19
2023-01-17T10:10:43.151Z,97220.25
2023-01-17T10:13:25.107Z,97222.47
2023-01-17T10:16:01.587Z,97230.28
2023-01-17T10:18:45.616Z,97222.81
2023-01-17T10:21:15.833Z,97225.66
2023-01-17T10:23:59.126Z,97230.94
2023-01-17T10:26:26.740Z,97231.91
2023-01-17T10:28:56.420Z,97232.59
2023-01-17T10:31:25.070Z,97242.69
2023-01-17T10:33:53.957Z,97242.03
2023-01-17T10:36:22.898Z,97244.84
2023-01-17T10:38:53.527Z,97247.28
2023-01-17T10:41:26.685Z,97244.75
2023-01-17T10:44:02.409Z,97245.69
2023-01-17T10:46:33.766Z,97236.28
2023-01-17T10:49:02.206Z,97236.63
2023-01-17T10:51:45.932Z,97237.97
2023-01-17T10:54:24.309Z,97237.03
2023-01-17T10:56:51.856Z,97242.31
2023-01-17T10:59:29.323Z,97238.56
2023-01-17T11:01:56.900Z,97241.00
2023-01-17T11:04:32.305Z,97242.44
2023-01-17T11:07:14.324Z,97238.00
2023-01-17T11:09:44.267Z,97240.78
2023-01-17T11:12:24.953Z,97241.44
2023-01-17T11:14:58.714Z,97240.81
2023-01-17T11:17:27.492Z,97243.84
2023-01-17T11:19:55.567Z,97243.69
2023-01-17T11:22:24.899Z,97235.34
2023-01-17T11:24:54.876Z,97233.56
2023-01-17T11:27:26.773Z,97250.16
2023-01-17T11:30:07.381Z,97237.47
2023-01-17T11:32:35.627Z,97247.34
2023-01-17T11:35:08.553Z,97245.03
2023-01-17T11:37:36.708Z,97243.38
2023-01-17T11:40:14.411Z,97251.44
2023-01-17T11:42:41.897Z,97262.16
2023-01-17T11:45:24.882Z,97260.38
2023-01-17T11:48:06.024Z,97259.16
2023-01-17T11:50:33.492Z,97261.47
2023-01-17T11:53:06.780Z,97270.13
2023-01-17T11:55:35.612Z,97261.03
2023-01-17T11:58:03.099Z,97267.47
2023-01-17T12:00:35.009Z,97268.34
2023-01-17T12:03:13.820Z,97275.28
2023-01-17T12:05:51.451Z,97279.81
2023-01-17T12:08:27.769Z,97275.88
2023-01-17T12:11:01.843Z,97279.09
2023-01-17T12:13:53.486Z,97286.09
2023-01-17T12:16:30.908Z,97286.97
2023-01-17T12:19:09.298Z,97287.47
2023-01-17T12:21:45.078Z,97285.88
2023-01-17T12:24:29.042Z,97279.00
2023-01-17T12:27:00.920Z,97289.53
2023-01-17T12:29:43.057Z,97285.31
2023-01-17T12:32:27.912Z,97287.75
2023-01-17T12:34:58.310Z,97286.34
2023-01-17T12:37:30.440Z,97283.72
2023-01-17T12:39:59.275Z,97288.16
2023-01-17T12:42:32.982Z,97279.59
2023-01-17T12:45:02.853Z,97287.56
2023-01-17T12:47:31.093Z,97299.22
2023-01-17T12:50:05.280Z,97296.13
2023-01-17T12:52:46.372Z,97292.25
2023-01-17T12:55:17.696Z,97298.38
2023-01-17T12:57:49.453Z,97296.91
2023-01-17T13:00:19.571Z,97308.13
2023-01-17T13:02:51.476Z,97312.66
2023-01-17T13:05:23.610Z,97301.72
2023-01-17T13:07:56.527Z,97307.63
2023-01-17T13:10:35.344Z,97317.59
2023-01-17T13:13:14.273Z,97326.47
2023-01-17T13:15:43.832Z,97324.94
2023-01-17T13:18:15.983Z,97330.44
2023-01-17T13:20:57.859Z,97340.31
2023-01-17T13:23:30.378Z,97338.47
2023-01-17T13:25:59.497Z,97329.84
2023-01-17T13:28:37.311Z,97341.84
2023-01-17T13:31:21.575Z,97340.38
2023-01-17T13:34:02.203Z,97347.25
2023-01-17T13:36:50.500Z,97347.44
2023-01-17T13:39:50.118Z,97358.63
2023-01-17T13:42:24.285Z,97362.09
2023-01-17T13:44:53.145Z,97368.63
2023-01-17T13:47:41.421Z,97363.03
2023-01-17T13:50:42.688Z,97363.59
2023-01-17T13:53:58.949Z,97356.97
2023-01-17T13:56:34.447Z,97362.47
2023-01-17T13:59:05.157Z,97365.50
2023-01-17T14:01:52.388Z,97361.03
2023-01-17T14:04:20.496Z,97377.31
2023-01-17T14:06:50.078Z,97358.91
2023-01-17T14:09:25.124Z,97373.28
2023-01-17T14:12:05.868Z,97364.59
2023-01-17T14:14:52.033Z,97365.25
2023-01-17T14:17:57.981Z,97367.63
2023-01-17T14:20:40.539Z,97369.94
2023-01-17T14:23:33.890Z,97372.25
2023-01-17T14:26:15.026Z,97380.59
2023-01-17T14:28:42.502Z,97383.03
2023-01-17T14:31:11.422Z,97393.06
2023-01-17T14:33:41.932Z,97392.75
2023-01-17T14:36:19.522Z,97389.34
2023-01-17T14:38:47.132Z,97397.63
2023-01-17T14:41:18.347Z,97397.41
2023-01-17T14:43:46.617Z,97399.00
2023-01-17T14:46:18.692Z,97396.19
2023-01-17T14:48:47.668Z,97399.34
2023-01-17T14:51:20.088Z,97389.84
2023-01-17T14:53:54.030Z,97402.38
2023-01-17T14:56:21.541Z,97404.63
2023-01-17T14:58:49.125Z,97400.31
2023-01-17T15:01:20.053Z,97404.03
2023-01-17T15:03:51.632Z,97407.78
2023-01-17T15:06:21.495Z,97410.38
2023-01-17T15:08:49.619Z,97422.94
2023-01-17T15:11:19.783Z,97425.88
2023-01-17T15:13:49.980Z,97427.06
2023-01-17T15:16:23.106Z,97424.94
2023-01-17T15:18:52.577Z,97428.00
2023-01-17T15:21:21.379Z,97436.91
2023-01-17T15:23:50.270Z,97441.69
2023-01-17T15:26:19.588Z,97445.06
2023-01-17T15:28:47.492Z,97443.47
2023-01-17T15:31:17.116Z,97437.66
2023-01-17T15:33:46.596Z,97438.25
2023-01-17T15:36:28.805Z,97431.31
2023-01-17T15:39:00.039Z,97444.94
2023-01-17T15:41:30.827Z,97442.13
2023-01-17T15:43:58.806Z,97448.66
2023-01-17T15:46:30.991Z,97445.81
2023-01-17T15:49:17.313Z,97446.25
2023-01-17T15:51:52.362Z,97445.97
2023-01-17T15:54:35.749Z,97443.78
2023-01-17T15:57:05.262Z,97453.91
2023-01-17T15:59:43.749Z,97451.25
2023-01-17T16:02:28.340Z,97451.00
2023-01-17T16:04:55.950Z,97448.84
2023-01-17T16:07:31.563Z,97456.19
2023-01-17T16:10:06.358Z,97451.53
2023-01-17T16:12:33.834Z,97449.09
2023-01-17T16:15:12.324Z,97454.56
2023-01-17T16:17:41.247Z,97462.47
2023-01-17T16:20:15.944Z,97465.16
2023-01-17T16:22:44.736Z,97460.09
2023-01-17T16:25:16.221Z,97467.28
2023-01-17T16:27:43.718Z,97460.16
2023-01-17T16:30:15.198Z,97463.28
2023-01-17T16:32:42.965Z,97466.84
2023-01-17T16:35:18.900Z,97461.75
2023-01-17T16:37:50.021Z,97459.19
2023-01-17T16:40:17.921Z,97468.72
2023-01-17T16:42:45.895Z,97463.09
2023-01-17T16:45:14.815Z,97471.72
2023-01-17T16:47:43.181Z,97470.91
2023-01-17T16:50:12.535Z,97477.13
2023-01-17T16:52:40.261Z,97476.84
2023-01-17T16:55:12.168Z,97477.13
2023-01-17T16:57:39.886Z,97476.59
2023-01-17T17:00:08.526Z,97474.00
2023-01-17T17:02:36.145Z,97483.84
2023-01-17T17:05:05.365Z,97487.88
2023-01-17T17:07:32.821Z,97482.69
2023-01-17T17:10:00.340Z,97496.56
2023-01-17T17:12:29.129Z,97490.16
2023-01-17T17:14:56.600Z,97491.75
2023-01-17T17:17:24.096Z,97495.56
2023-01-17T17:19:51.561Z,97497.66
2023-01-17T17:22:19.356Z,97496.66
2023-01-17T17:24:46.941Z,97504.16
2023-01-17T17:27:14.523Z,97499.75
2023-01-17T17:29:43.286Z,97490.63
2023-01-17T17:32:11.553Z,97499.75
2023-01-17T17:34:39.172Z,97503.81
2023-01-17T17:37:06.645Z,97508.31
2023-01-17T17:39:34.095Z,97516.16
2023-01-17T17:42:01.551Z,97507.03
2023-01-17T17:44:29.209Z,97509.91
2023-01-17T17:46:58.026Z,97502.69
2023-01-17T17:49:25.730Z,97508.28
2023-01-17T17:51:53.471Z,97516.94
2023-01-17T17:54:22.048Z,97516.00
2023-01-17T17:56:49.716Z,97524.22
2023-01-17T17:59:19.463Z,97521.03
2023-01-17T18:01:48.023Z,97525.38
2023-01-17T18:04:17.004Z,97527.03
2023-01-17T18:06:45.273Z,97529.00
2023-01-17T18:09:13.712Z,97535.88
2023-01-17T18:11:42.608Z,97539.72
2023-01-17T18:14:12.353Z,97550.25
2023-01-17T18:16:42.132Z,97550.25
2023-01-17T18:19:12.590Z,97552.09
2023-01-17T18:21:41.723Z,97552.94
2023-01-17T18:24:11.228Z,97549.56
2023-01-17T18:26:40.040Z,97550.19
2023-01-17T18:29:09.560Z,97548.44
2023-01-17T18:31:37.411Z,97549.72
2023-01-17T18:34:06.791Z,97544.00
2023-01-17T18:36:35.646Z,97554.06
2023-01-17T18:39:06.345Z,97554.22
2023-01-17T18:41:34.594Z,97552.78
2023-01-17T18:44:04.975Z,97549.56
2023-01-17T18:46:33.000Z,97546.25
2023-01-17T18:49:00.625Z,97548.97
2023-01-17T18:51:31.758Z,97549.84
2023-01-17T18:54:02.800Z,97549.03
2023-01-17T18:56:34.124Z,97533.59
2023-01-17T18:59:01.953Z,97543.91
2023-01-17T19:01:30.734Z,97544.59
2023-01-17T19:04:00.018Z,97549.28
2023-01-17T19:06:30.387Z,97544.16
2023-01-17T19:08:58.862Z,97552.00
2023-01-17T19:11:27.788Z,97558.28
2023-01-17T19:13:57.374Z,97557.47
2023-01-17T19:16:27.974Z,97549.66
2023-01-17T19:18:56.487Z,97561.09
2023-01-17T19:21:25.849Z,97554.91
2023-01-17T19:23:54.454Z,97554.03
2023-01-17T19:26:23.863Z,97555.75
2023-01-17T19:28:51.854Z,97560.16
2023-01-17T19:31:22.171Z,97569.72
2023-01-17T19:33:51.204Z,97576.44
2023-01-17T19:36:20.954Z,97571.75
2023-01-17T19:39:02.983Z,97578.66
2023-01-17T19:41:31.831Z,97581.34
2023-01-17T19:44:01.945Z,97592.72
2023-01-17T19:46:31.561Z,97589.31
2023-01-17T19:48:59.550Z,97593.13
2023-01-17T19:51:27.641Z,97604.44
2023-01-17T19:53:55.678Z,97612.28
2023-01-17T19:56:25.369Z,97612.56
2023-01-17T19:58:53.344Z,97614.22
2023-01-17T20:01:24.504Z,97617.69
2023-01-17T20:03:55.006Z,97614.38
2023-01-17T20:06:25.749Z,97611.84
2023-01-17T20:08:53.206Z,97618.97
2023-01-17T20:11:22.188Z,97623.47
2023-01-17T20:13:53.038Z,97619.91
2023-01-17T20:16:20.878Z,97620.78
2023-01-17T20:18:48.830Z,97618.13
2023-01-17T20:21:19.126Z,97629.53
2023-01-17T20:23:47.864Z,97623.41
2023-01-17T20:26:16.766Z,97623.50
2023-01-17T20:28:48.186Z,97627.91
2023-01-17T20:31:17.078Z,97622.66
2023-01-17T20:33:46.883Z,97620.09
2023-01-17T20:36:15.876Z,97619.28
2023-01-17T20:38:45.210Z,97626.22
2023-01-17T20:41:14.536Z,97623.72
2023-01-17T20:43:42.709Z,97626.25
2023-01-17T20:46:10.632Z,97627.34
2023-01-17T20:48:39.054Z,97620.31
2023-01-17T20:51:10.644Z,97629.94
2023-01-17T20:53:38.837Z,97628.22
2023-01-17T20:56:08.902Z,97636.03
2023-01-17T20:58:38.403Z,97641.28
2023-01-17T21:01:06.854Z,97647.41
2023-01-17T21:03:35.592Z,97639.59
2023-01-17T21:06:04.331Z,97642.16
2023-01-17T21:08:33.059Z,97647.41
2023-01-17T21:11:00.679Z,97648.28
2023-01-17T21:13:29.750Z,97650.88
2023-01-17T21:15:57.411Z,97656.16
2023-01-17T21:18:25.894Z,97660.53
2023-01-17T21:20:53.463Z,97671.94
2023-01-17T21:23:21.151Z,97677.09
2023-01-17T21:25:58.419Z,97678.78
2023-01-17T21:28:27.949Z,97683.97
2023-01-17T21:30:57.632Z,97691.47
2023-01-17T21:33:26.333Z,97694.06
2023-01-17T21:35:53.972Z,97696.16
2023-01-17T21:38:21.905Z,97701.38
2023-01-17T21:40:49.410Z,97704.09
2023-01-17T21:43:16.884Z,97704.13
2023-01-17T21:45:44.314Z,97697.16
2023-01-17T21:48:13.284Z,97704.19
2023-01-17T21:50:40.844Z,97712.00
2023-01-17T21:53:09.914Z,97713.47
2023-01-17T21:55:55.598Z,97726.53
2023-01-17T21:58:41.208Z,97726.75
2023-01-17T22:01:11.038Z,97730.16
2023-01-17T22:03:39.892Z,97738.06
2023-01-17T22:06:07.787Z,97738.84
2023-01-17T22:08:35.737Z,97741.47
2023-01-17T22:11:04.333Z,97738.00
2023-01-17T22:13:33.200Z,97739.00
2023-01-17T22:16:02.225Z,97741.25
2023-01-17T22:18:30.028Z,97736.22
2023-01-17T22:20:59.270Z,97743.22
2023-01-17T22:23:26.776Z,97742.09
2023-01-17T22:25:54.228Z,97736.00
2023-01-17T22:28:21.928Z,97741.22
2023-01-17T22:30:49.651Z,97742.88
2023-01-17T22:33:17.286Z,97743.97
2023-01-17T22:35:44.774Z,97740.47
2023-01-17T22:38:13.643Z,97744.94
2023-01-17T22:40:41.142Z,97751.09
2023-01-17T22:43:08.595Z,97745.06
2023-01-17T22:45:36.234Z,97752.97
2023-01-17T22:48:03.689Z,97741.63
2023-01-17T22:50:31.191Z,97746.06
2023-01-17T22:52:59.004Z,97737.38
2023-01-17T22:55:27.997Z,97733.91
2023-01-17T22:57:55.588Z,97732.19
2023-01-17T23:00:23.034Z,97726.97
2023-01-17T23:02:50.559Z,97727.84
2023-01-17T23:05:18.281Z,97726.97
2023-01-17T23:07:50.348Z,97725.19
2023-01-17T23:10:39.085Z,97729.50
2023-01-17T23:13:10.884Z,97733.03
2023-01-17T23:15:56.588Z,97730.41
2023-01-17T23:18:41.789Z,97733.91
2023-01-17T23:21:09.480Z,97728.69
2023-01-17T23:23:36.992Z,97731.31
2023-01-17T23:26:04.443Z,97735.69
2023-01-17T23:28:32.318Z,97727.88
2023-01-17T23:31:03.454Z,97728.72
2023-01-17T23:33:31.020Z,97724.44
2023-01-17T23:35:58.521Z,97723.56
2023-01-17T23:38:29.948Z,97716.63
2023-01-17T23:41:19.711Z,97718.41
2023-01-17T23:43:52.581Z,97716.72
2023-01-17T23:46:20.816Z,97716.72
2023-01-17T23:48:48.720Z,97717.66
2023-01-17T23:51:16.530Z,97708.91
2023-01-17T23:53:43.993Z,97700.25
2023-01-17T23:56:15.362Z,97696.75
2023-01-17T23:58:42.991Z,97703.69
